sensor_id;sensor_type;location;lat;lon;timestamp;pressure;altitude;pressure_sealevel;temperature;humidity
74372;BME280;62885;51.374;6.170;2024-01-10T00:01:08;62118.31;;;-3.78;59.48
74372;BME280;62885;51.374;6.170;2024-01-10T00:03:33;62150.56;;;-3.75;59.64
74372;BME280;62885;51.374;6.170;2024-01-10T00:05:58;62125.00;;;-3.94;60.28
74372;BME280;62885;51.374;6.170;2024-01-10T00:08:24;62117.44;;;-4.03;61.34
74372;BME280;62885;51.374;6.170;2024-01-10T00:10:51;62121.16;;;-4.00;61.17
74372;BME280;62885;51.374;6.170;2024-01-10T00:13:16;62147.97;;;-3.75;60.86
74372;BME280;62885;51.374;6.170;2024-01-10T00:15:42;62138.84;;;-3.83;60.91
74372;BME280;62885;51.374;6.170;2024-01-10T00:18:07;62127.53;;;-3.96;60.98
74372;BME280;62885;51.374;6.170;2024-01-10T00:20:33;62121.63;;;-4.02;61.62
74372;BME280;62885;51.374;6.170;2024-01-10T00:22:58;62161.72;;;-3.66;60.63
74372;BME280;62885;51.374;6.170;2024-01-10T00:25:23;62121.28;;;-3.97;60.92
74372;BME280;62885;51.374;6.170;2024-01-10T00:27:48;62144.13;;;-3.81;61.03
74372;BME280;62885;51.374;6.170;2024-01-10T00:30:14;62113.59;;;-4.09;61.27
74372;BME280;62885;51.374;6.170;2024-01-10T00:32:39;62114.19;;;-4.06;61.78
74372;BME280;62885;51.374;6.170;2024-01-10T00:35:05;62076.09;;;-4.16;62.03
74372;BME280;62885;51.374;6.170;2024-01-10T00:37:30;62109.81;;;-4.13;61.59
74372;BME280;62885;51.374;6.170;2024-01-10T00:39:55;62100.72;;;-4.22;61.95
74372;BME280;62885;51.374;6.170;2024-01-10T00:42:21;62098.03;;;-4.24;61.57
74372;BME280;62885;51.374;6.170;2024-01-10T00:44:47;62096.53;;;-4.23;61.10
74372;BME280;62885;51.374;6.170;2024-01-10T00:47:12;62093.84;;;-4.26;61.67
74372;BME280;62885;51.374;6.170;2024-01-10T00:49:37;62093.16;;;-4.02;61.16
74372;BME280;62885;51.374;6.170;2024-01-10T00:52:03;62114.19;;;-4.06;60.97
74372;BME280;62885;51.374;6.170;2024-01-10T00:54:29;62113.13;;;-4.07;60.98
74372;BME280;62885;51.374;6.170;2024-01-10T00:56:54;62113.75;;;-4.04;60.52
74372;BME280;62885;51.374;6.170;2024-01-10T00:59:19;62126.53;;;-3.95;60.61
74372;BME280;62885;51.374;6.170;2024-01-10T01:01:45;62121.81;;;-3.97;60.30
74372;BME280;62885;51.374;6.170;2024-01-10T01:04:10;62108.84;;;-4.11;59.96
74372;BME280;62885;51.374;6.170;2024-01-10T01:06:35;62113.06;;;-4.10;61.22
74372;BME280;62885;51.374;6.170;2024-01-10T01:09:01;62102.25;;;-4.23;61.20
74372;BME280;62885;51.374;6.170;2024-01-10T01:11:27;62087.78;;;-4.07;60.83
74372;BME280;62885;51.374;6.170;2024-01-10T01:13:52;62121.81;;;-3.97;60.78
74372;BME280;62885;51.374;6.170;2024-01-10T01:16:17;62120.63;;;-4.00;60.83
74372;BME280;62885;51.374;6.170;2024-01-10T01:18:43;62117.25;;;-4.08;60.73
74372;BME280;62885;51.374;6.170;2024-01-10T01:21:11;62129.03;;;-3.97;61.43
74372;BME280;62885;51.374;6.170;2024-01-10T01:23:36;62135.72;;;-3.84;60.10
74372;BME280;62885;51.374;6.170;2024-01-10T01:26:02;62139.22;;;-3.88;60.41
74372;BME280;62885;51.374;6.170;2024-01-10T01:28:29;62135.72;;;-3.84;60.66
74372;BME280;62885;51.374;6.170;2024-01-10T01:30:54;62174.88;;;-3.47;59.66
74372;BME280;62885;51.374;6.170;2024-01-10T01:33:19;62131.19;;;-3.66;59.25
74372;BME280;62885;51.374;6.170;2024-01-10T01:35:45;62151.19;;;-3.72;58.98
74372;BME280;62885;51.374;6.170;2024-01-10T01:38:10;62182.22;;;-3.45;58.33
74372;BME280;62885;51.374;6.170;2024-01-10T01:40:36;62195.78;;;-3.27;58.58
74372;BME280;62885;51.374;6.170;2024-01-10T01:43:01;62163.53;;;-3.60;57.96
74372;BME280;62885;51.374;6.170;2024-01-10T01:45:26;62128.13;;;-3.93;59.54
74372;BME280;62885;51.374;6.170;2024-01-10T01:47:52;62113.13;;;-4.07;59.63
74372;BME280;62885;51.374;6.170;2024-01-10T01:50:17;62121.09;;;-4.02;60.99
74372;BME280;62885;51.374;6.170;2024-01-10T01:52:43;62114.84;;;-4.03;60.48
74372;BME280;62885;51.374;6.170;2024-01-10T01:55:10;62118.41;;;-4.05;60.67
74372;BME280;62885;51.374;6.170;2024-01-10T01:57:37;62117.34;;;-4.06;60.84
74372;BME280;62885;51.374;6.170;2024-01-10T02:00:02;62099.81;;;-4.18;61.03
74372;BME280;62885;51.374;6.170;2024-01-10T02:02:30;62081.97;;;-4.39;62.05
74372;BME280;62885;51.374;6.170;2024-01-10T02:04:58;62085.19;;;-4.36;62.13
74372;BME280;62885;51.374;6.170;2024-01-10T02:07:23;62089.47;;;-4.32;61.80
74372;BME280;62885;51.374;6.170;2024-01-10T02:09:48;62107.69;;;-4.15;61.63
74372;BME280;62885;51.374;6.170;2024-01-10T02:12:14;62100.19;;;-4.22;61.47
74372;BME280;62885;51.374;6.170;2024-01-10T02:14:39;62121.16;;;-4.00;62.40
74372;BME280;62885;51.374;6.170;2024-01-10T02:17:05;62097.06;;;-4.23;61.25
74372;BME280;62885;51.374;6.170;2024-01-10T02:19:30;62087.97;;;-4.31;61.04
74372;BME280;62885;51.374;6.170;2024-01-10T02:21:57;62070.72;;;-4.50;61.67
74372;BME280;62885;51.374;6.170;2024-01-10T02:24:23;62051.63;;;-4.63;62.24
74372;BME280;62885;51.374;6.170;2024-01-10T02:26:48;62054.75;;;-4.63;62.46
74372;BME280;62885;51.374;6.170;2024-01-10T02:29:15;62054.09;;;-4.66;62.47
74372;BME280;62885;51.374;6.170;2024-01-10T02:31:40;62063.22;;;-4.57;62.76
74372;BME280;62885;51.374;6.170;2024-01-10T02:34:05;62068.69;;;-4.49;61.94
74372;BME280;62885;51.374;6.170;2024-01-10T02:36:31;62067.06;;;-4.51;63.19
74372;BME280;62885;51.374;6.170;2024-01-10T02:38:56;62093.75;;;-4.28;61.85
74372;BME280;62885;51.374;6.170;2024-01-10T02:41:21;62091.06;;;-4.31;61.37
74372;BME280;62885;51.374;6.170;2024-01-10T02:43:47;62093.31;;;-4.26;61.20
74372;BME280;62885;51.374;6.170;2024-01-10T02:46:12;62075.00;;;-4.46;62.30
74372;BME280;62885;51.374;6.170;2024-01-10T02:48:37;62061.63;;;-4.59;62.85
74372;BME280;62885;51.374;6.170;2024-01-10T02:51:03;62053.13;;;-4.64;63.05
74372;BME280;62885;51.374;6.170;2024-01-10T02:53:28;62057.34;;;-4.63;62.80
74372;BME280;62885;51.374;6.170;2024-01-10T02:55:55;62070.38;;;-4.45;62.78
74372;BME280;62885;51.374;6.170;2024-01-10T02:58:20;62071.44;;;-4.44;62.17
74372;BME280;62885;51.374;6.170;2024-01-10T03:00:46;62096.44;;;-4.26;61.78
74372;BME280;62885;51.374;6.170;2024-01-10T03:03:12;62033.16;;;-4.59;62.34
74372;BME280;62885;51.374;6.170;2024-01-10T03:05:37;62059.66;;;-4.56;63.09
74372;BME280;62885;51.374;6.170;2024-01-10T03:08:03;62036.47;;;-4.53;62.50
74372;BME280;62885;51.374;6.170;2024-01-10T03:10:29;62049.84;;;-4.70;62.95
74372;BME280;62885;51.374;6.170;2024-01-10T03:12:54;62037.69;;;-4.76;64.54
74372;BME280;62885;51.374;6.170;2024-01-10T03:15:20;62013.88;;;-4.77;63.46
74372;BME280;62885;51.374;6.170;2024-01-10T03:17:46;62018.72;;;-4.72;63.52
74372;BME280;62885;51.374;6.170;2024-01-10T03:20:11;62031.81;;;-4.82;64.88
74372;BME280;62885;51.374;6.170;2024-01-10T03:22:37;62041.91;;;-4.75;64.09
74372;BME280;62885;51.374;6.170;2024-01-10T03:25:02;62033.78;;;-4.85;64.23
74372;BME280;62885;51.374;6.170;2024-01-10T03:27:28;62031.00;;;-4.90;65.62
74372;BME280;62885;51.374;6.170;2024-01-10T03:29:53;62028.50;;;-4.87;64.79
74372;BME280;62885;51.374;6.170;2024-01-10T03:32:18;62018.41;;;-4.94;65.47
74372;BME280;62885;51.374;6.170;2024-01-10T03:34:44;61991.50;;;-4.95;65.69
74372;BME280;62885;51.374;6.170;2024-01-10T03:37:09;62027.34;;;-4.91;65.83
74372;BME280;62885;51.374;6.170;2024-01-10T03:39:34;62025.84;;;-4.90;65.12
74372;BME280;62885;51.374;6.170;2024-01-10T03:42:00;62031.19;;;-4.85;64.95
74372;BME280;62885;51.374;6.170;2024-01-10T03:44:26;62026.38;;;-4.89;65.89
74372;BME280;62885;51.374;6.170;2024-01-10T03:46:51;62023.06;;;-4.95;66.29
74372;BME280;62885;51.374;6.170;2024-01-10T03:49:17;62013.00;;;-5.02;66.35
74372;BME280;62885;51.374;6.170;2024-01-10T03:51:42;62021.00;;;-4.94;66.45
74372;BME280;62885;51.374;6.170;2024-01-10T03:54:08;62013.06;;;-5.00;66.57
74372;BME280;62885;51.374;6.170;2024-01-10T03:56:33;62017.16;;;-5.01;66.37
74372;BME280;62885;51.374;6.170;2024-01-10T03:58:59;62019.50;;;-4.93;66.13
74372;BME280;62885;51.374;6.170;2024-01-10T04:01:26;61993.56;;;-4.96;65.84
74372;BME280;62885;51.374;6.170;2024-01-10T04:03:52;62021.00;;;-4.94;66.18
74372;BME280;62885;51.374;6.170;2024-01-10T04:06:17;62031.00;;;-4.90;66.30
74372;BME280;62885;51.374;6.170;2024-01-10T04:08:42;62017.81;;;-4.98;66.54
74372;BME280;62885;51.374;6.170;2024-01-10T04:11:08;62025.84;;;-4.90;66.28
74372;BME280;62885;51.374;6.170;2024-01-10T04:13:34;62030.13;;;-4.86;66.32
74372;BME280;62885;51.374;6.170;2024-01-10T04:15:59;62012.53;;;-5.00;66.87
74372;BME280;62885;51.374;6.170;2024-01-10T04:18:25;62008.19;;;-5.07;67.21
74372;BME280;62885;51.374;6.170;2024-01-10T04:20:51;62019.94;;;-4.95;67.43
74372;BME280;62885;51.374;6.170;2024-01-10T04:23:17;62003.25;;;-5.14;67.06
74372;BME280;62885;51.374;6.170;2024-01-10T04:25:42;62005.94;;;-5.11;67.54
74372;BME280;62885;51.374;6.170;2024-01-10T04:28:07;62008.25;;;-5.04;67.88
74372;BME280;62885;51.374;6.170;2024-01-10T04:30:33;62003.25;;;-5.14;67.85
74372;BME280;62885;51.374;6.170;2024-01-10T04:32:58;61997.44;;;-5.17;67.43
74372;BME280;62885;51.374;6.170;2024-01-10T04:35:23;62009.69;;;-5.08;67.41
74372;BME280;62885;51.374;6.170;2024-01-10T04:37:49;62023.59;;;-4.94;67.57
74372;BME280;62885;51.374;6.170;2024-01-10T04:40:14;62008.69;;;-5.06;67.74
74372;BME280;62885;51.374;6.170;2024-01-10T04:42:40;61978.66;;;-5.08;67.67
74372;BME280;62885;51.374;6.170;2024-01-10T04:45:06;62000.22;;;-5.12;67.41
74372;BME280;62885;51.374;6.170;2024-01-10T04:47:33;62011.38;;;-5.04;67.20
74372;BME280;62885;51.374;6.170;2024-01-10T04:49:58;62007.00;;;-5.10;67.87
74372;BME280;62885;51.374;6.170;2024-01-10T04:52:23;61997.44;;;-5.17;67.75
74372;BME280;62885;51.374;6.170;2024-01-10T04:54:49;62000.56;;;-5.16;69.24
74372;BME280;62885;51.374;6.170;2024-01-10T04:57:15;62002.91;;;-5.09;68.15
74372;BME280;62885;51.374;6.170;2024-01-10T04:59:41;61996.84;;;-5.20;68.57
74372;BME280;62885;51.374;6.170;2024-01-10T05:02:06;61992.53;;;-5.24;69.04
74372;BME280;62885;51.374;6.170;2024-01-10T05:04:32;61982.56;;;-5.28;69.14
74372;BME280;62885;51.374;6.170;2024-01-10T05:06:57;61991.13;;;-5.20;70.09
74372;BME280;62885;51.374;6.170;2024-01-10T05:09:23;61993.19;;;-5.21;69.47
74372;BME280;62885;51.374;6.170;2024-01-10T05:11:48;61985.78;;;-5.25;68.79
74372;BME280;62885;51.374;6.170;2024-01-10T05:14:16;61980.44;;;-5.30;69.44
74372;BME280;62885;51.374;6.170;2024-01-10T05:16:41;61994.16;;;-5.22;69.55
74372;BME280;62885;51.374;6.170;2024-01-10T05:19:07;61983.03;;;-5.30;69.61
74372;BME280;62885;51.374;6.170;2024-01-10T05:21:32;61987.81;;;-5.26;69.17
74372;BME280;62885;51.374;6.170;2024-01-10T05:23:58;62006.09;;;-5.06;69.59
74372;BME280;62885;51.374;6.170;2024-01-10T05:26:23;61988.91;;;-5.25;69.42
74372;BME280;62885;51.374;6.170;2024-01-10T05:28:49;61992.53;;;-5.24;69.57
74372;BME280;62885;51.374;6.170;2024-01-10T05:31:14;61990.59;;;-5.21;69.57
74372;BME280;62885;51.374;6.170;2024-01-10T05:33:40;61989.97;;;-5.24;70.48
74372;BME280;62885;51.374;6.170;2024-01-10T05:36:08;61990.50;;;-5.23;70.44
74372;BME280;62885;51.374;6.170;2024-01-10T05:38:37;61986.75;;;-5.27;70.09
74372;BME280;62885;51.374;6.170;2024-01-10T05:41:02;61994.25;;;-5.20;70.56
74372;BME280;62885;51.374;6.170;2024-01-10T05:43:27;61981.50;;;-5.29;70.17
74372;BME280;62885;51.374;6.170;2024-01-10T05:45:53;61980.88;;;-5.32;71.03
74372;BME280;62885;51.374;6.170;2024-01-10T05:48:18;62002.81;;;-5.12;70.82
74372;BME280;62885;51.374;6.170;2024-01-10T05:50:43;61984.72;;;-5.26;69.99
74372;BME280;62885;51.374;6.170;2024-01-10T05:53:09;61981.50;;;-5.29;70.74
74372;BME280;62885;51.374;6.170;2024-01-10T05:55:35;61986.13;;;-5.30;71.19
74372;BME280;62885;51.374;6.170;2024-01-10T05:58:02;61993.72;;;-5.20;70.30
74372;BME280;62885;51.374;6.170;2024-01-10T06:00:27;61981.94;;;-5.31;70.24
74372;BME280;62885;51.374;6.170;2024-01-10T06:02:53;61973.91;;;-5.39;71.14
74372;BME280;62885;51.374;6.170;2024-01-10T06:05:19;61981.84;;;-5.34;70.89
74372;BME280;62885;51.374;6.170;2024-01-10T06:07:44;61977.66;;;-5.35;71.29
74372;BME280;62885;51.374;6.170;2024-01-10T06:10:09;61976.50;;;-5.39;71.55
74372;BME280;62885;51.374;6.170;2024-01-10T06:12:37;61978.19;;;-5.35;71.51
74372;BME280;62885;51.374;6.170;2024-01-10T06:15:04;61982.31;;;-5.36;69.98
74372;BME280;62885;51.374;6.170;2024-01-10T06:17:29;61983.44;;;-5.32;70.89
74372;BME280;62885;51.374;6.170;2024-01-10T06:19:56;61981.94;;;-5.31;70.91
74372;BME280;62885;51.374;6.170;2024-01-10T06:22:24;61978.19;;;-5.35;70.54
74372;BME280;62885;51.374;6.170;2024-01-10T06:24:50;61973.28;;;-5.42;70.36
74372;BME280;62885;51.374;6.170;2024-01-10T06:27:15;61976.06;;;-5.37;70.86
74372;BME280;62885;51.374;6.170;2024-01-10T06:29:42;61976.50;;;-5.39;70.91
74372;BME280;62885;51.374;6.170;2024-01-10T06:32:07;61977.13;;;-5.36;71.26
74372;BME280;62885;51.374;6.170;2024-01-10T06:34:32;61979.19;;;-5.36;71.06
74372;BME280;62885;51.374;6.170;2024-01-10T06:36:58;61953.44;;;-5.34;70.82
74372;BME280;62885;51.374;6.170;2024-01-10T06:39:24;61987.72;;;-5.28;70.63
74372;BME280;62885;51.374;6.170;2024-01-10T06:41:49;61991.38;;;-5.27;69.86
74372;BME280;62885;51.374;6.170;2024-01-10T06:44:15;61979.78;;;-5.33;70.11
74372;BME280;62885;51.374;6.170;2024-01-10T06:46:43;61988.69;;;-5.30;69.93
74372;BME280;62885;51.374;6.170;2024-01-10T06:49:09;61982.56;;;-5.28;70.19
74372;BME280;62885;51.374;6.170;2024-01-10T06:51:34;61998.34;;;-5.21;69.70
74372;BME280;62885;51.374;6.170;2024-01-10T06:54:00;61991.03;;;-5.23;69.60
74372;BME280;62885;51.374;6.170;2024-01-10T06:56:32;61989.34;;;-5.27;69.24
74372;BME280;62885;51.374;6.170;2024-01-10T06:59:01;61984.16;;;-5.27;69.42
74372;BME280;62885;51.374;6.170;2024-01-10T07:01:27;61987.38;;;-5.24;69.73
74372;BME280;62885;51.374;6.170;2024-01-10T07:03:53;61990.41;;;-5.26;70.02
74372;BME280;62885;51.374;6.170;2024-01-10T07:06:22;61984.59;;;-5.29;70.58
74372;BME280;62885;51.374;6.170;2024-01-10T07:08:48;61981.41;;;-5.32;70.53
74372;BME280;62885;51.374;6.170;2024-01-10T07:11:18;61979.72;;;-5.36;71.38
74372;BME280;62885;51.374;6.170;2024-01-10T07:13:44;61979.25;;;-5.34;71.21
74372;BME280;62885;51.374;6.170;2024-01-10T07:16:09;61980.34;;;-5.33;70.53
74372;BME280;62885;51.374;6.170;2024-01-10T07:18:35;61976.06;;;-5.37;70.96
74372;BME280;62885;51.374;6.170;2024-01-10T07:21:00;61985.50;;;-5.33;70.44
74372;BME280;62885;51.374;6.170;2024-01-10T07:23:26;61979.72;;;-5.36;71.20
74372;BME280;62885;51.374;6.170;2024-01-10T07:25:52;61975.41;;;-5.40;71.29
74372;BME280;62885;51.374;6.170;2024-01-10T07:28:18;61981.84;;;-5.34;70.43
74372;BME280;62885;51.374;6.170;2024-01-10T07:30:44;61981.41;;;-5.32;70.17
74372;BME280;62885;51.374;6.170;2024-01-10T07:33:11;61984.59;;;-5.29;69.73
74372;BME280;62885;51.374;6.170;2024-01-10T07:35:36;61981.41;;;-5.32;70.04
74372;BME280;62885;51.374;6.170;2024-01-10T07:38:03;61981.41;;;-5.32;70.22
74372;BME280;62885;51.374;6.170;2024-01-10T07:40:29;61986.13;;;-5.30;69.74
74372;BME280;62885;51.374;6.170;2024-01-10T07:42:54;61985.06;;;-5.31;69.65
74372;BME280;62885;51.374;6.170;2024-01-10T07:45:20;61992.53;;;-5.24;69.58
74372;BME280;62885;51.374;6.170;2024-01-10T07:47:46;61995.66;;;-5.23;68.96
74372;BME280;62885;51.374;6.170;2024-01-10T07:50:12;61987.81;;;-5.26;69.48
74372;BME280;62885;51.374;6.170;2024-01-10T07:52:42;61990.06;;;-5.21;69.82
74372;BME280;62885;51.374;6.170;2024-01-10T07:55:07;61995.22;;;-5.21;69.34
74372;BME280;62885;51.374;6.170;2024-01-10T07:57:34;61995.88;;;-5.18;68.85
74372;BME280;62885;51.374;6.170;2024-01-10T07:59:59;61998.44;;;-5.18;69.95
74372;BME280;62885;51.374;6.170;2024-01-10T08:02:25;61996.91;;;-5.17;69.29
74372;BME280;62885;51.374;6.170;2024-01-10T08:04:51;61995.94;;;-5.16;69.21
74372;BME280;62885;51.374;6.170;2024-01-10T08:07:17;62003.78;;;-5.13;68.40
74372;BME280;62885;51.374;6.170;2024-01-10T08:09:42;61997.56;;;-5.14;69.82
74372;BME280;62885;51.374;6.170;2024-01-10T08:12:08;62005.94;;;-5.11;69.77
74372;BME280;62885;51.374;6.170;2024-01-10T08:14:33;62003.25;;;-5.14;70.25
74372;BME280;62885;51.374;6.170;2024-01-10T08:16:58;61997.44;;;-5.17;69.86
74372;BME280;62885;51.374;6.170;2024-01-10T08:19:26;61999.59;;;-5.15;69.87
74372;BME280;62885;51.374;6.170;2024-01-10T08:21:54;62009.16;;;-5.08;70.30
74372;BME280;62885;51.374;6.170;2024-01-10T08:24:20;62012.34;;;-5.05;70.16
74372;BME280;62885;51.374;6.170;2024-01-10T08:26:46;62010.94;;;-5.02;70.01
74372;BME280;62885;51.374;6.170;2024-01-10T08:29:12;62012.44;;;-5.03;68.98
74372;BME280;62885;51.374;6.170;2024-01-10T08:31:37;62021.00;;;-4.94;69.79
74372;BME280;62885;51.374;6.170;2024-01-10T08:34:04;62017.25;;;-4.98;68.71
74372;BME280;62885;51.374;6.170;2024-01-10T08:36:29;62021.00;;;-4.94;68.74
74372;BME280;62885;51.374;6.170;2024-01-10T08:38:54;62025.38;;;-4.88;68.69
74372;BME280;62885;51.374;6.170;2024-01-10T08:41:20;62036.44;;;-4.82;68.23
74372;BME280;62885;51.374;6.170;2024-01-10T08:43:46;62008.09;;;-4.80;68.68
74372;BME280;62885;51.374;6.170;2024-01-10T08:46:12;62036.63;;;-4.77;68.66
74372;BME280;62885;51.374;6.170;2024-01-10T08:48:37;62044.66;;;-4.70;68.80
74372;BME280;62885;51.374;6.170;2024-01-10T08:51:03;62047.78;;;-4.69;67.91
74372;BME280;62885;51.374;6.170;2024-01-10T08:53:28;62051.53;;;-4.66;68.75
74372;BME280;62885;51.374;6.170;2024-01-10T08:55:54;62057.88;;;-4.62;68.49
74372;BME280;62885;51.374;6.170;2024-01-10T08:58:19;62056.91;;;-4.61;68.11
74372;BME280;62885;51.374;6.170;2024-01-10T09:00:45;62066.97;;;-4.53;67.74
74372;BME280;62885;51.374;6.170;2024-01-10T09:03:10;62061.25;;;-4.54;67.33
74372;BME280;62885;51.374;6.170;2024-01-10T09:05:36;62078.75;;;-4.42;67.88
74372;BME280;62885;51.374;6.170;2024-01-10T09:08:01;62077.34;;;-4.39;67.58
74372;BME280;62885;51.374;6.170;2024-01-10T09:10:28;62078.84;;;-4.40;67.38
74372;BME280;62885;51.374;6.170;2024-01-10T09:12:53;62081.44;;;-4.40;66.83
74372;BME280;62885;51.374;6.170;2024-01-10T09:15:19;62083.66;;;-4.35;66.45
74372;BME280;62885;51.374;6.170;2024-01-10T09:17:45;62094.47;;;-4.23;66.64
74372;BME280;62885;51.374;6.170;2024-01-10T09:20:13;62068.59;;;-4.23;66.36
74372;BME280;62885;51.374;6.170;2024-01-10T09:22:39;62103.94;;;-4.19;66.53
74372;BME280;62885;51.374;6.170;2024-01-10T09:25:05;62109.38;;;-4.11;66.08
74372;BME280;62885;51.374;6.170;2024-01-10T09:27:34;62115.28;;;-4.05;65.83
74372;BME280;62885;51.374;6.170;2024-01-10T09:30:03;62114.75;;;-4.06;65.78
74372;BME280;62885;51.374;6.170;2024-01-10T09:32:36;62119.66;;;-3.99;65.78
74372;BME280;62885;51.374;6.170;2024-01-10T09:35:02;62128.03;;;-3.96;65.40
74372;BME280;62885;51.374;6.170;2024-01-10T09:37:27;62122.16;;;-4.01;65.89
74372;BME280;62885;51.374;6.170;2024-01-10T09:39:53;62125.91;;;-3.98;65.54
74372;BME280;62885;51.374;6.170;2024-01-10T09:42:19;62132.53;;;-3.87;65.44
74372;BME280;62885;51.374;6.170;2024-01-10T09:44:47;62146.91;;;-3.76;65.17
74372;BME280;62885;51.374;6.170;2024-01-10T09:47:15;62127.00;;;-3.67;64.47
74372;BME280;62885;51.374;6.170;2024-01-10T09:49:40;62165.56;;;-3.60;63.84
74372;BME280;62885;51.374;6.170;2024-01-10T09:52:10;62173.63;;;-3.53;63.98
74372;BME280;62885;51.374;6.170;2024-01-10T09:54:38;62165.13;;;-3.58;63.83
74372;BME280;62885;51.374;6.170;2024-01-10T09:57:05;62170.59;;;-3.51;63.60
74372;BME280;62885;51.374;6.170;2024-01-10T09:59:31;62172.19;;;-3.49;62.83
74372;BME280;62885;51.374;6.170;2024-01-10T10:01:56;62175.78;;;-3.51;61.70
74372;BME280;62885;51.374;6.170;2024-01-10T10:04:25;62173.78;;;-3.48;62.03
74372;BME280;62885;51.374;6.170;2024-01-10T10:06:59;62185.41;;;-3.42;61.59
74372;BME280;62885;51.374;6.170;2024-01-10T10:09:26;62187.03;;;-3.40;60.93
74372;BME280;62885;51.374;6.170;2024-01-10T10:11:54;62140.91;;;-3.54;61.05
74372;BME280;62885;51.374;6.170;2024-01-10T10:14:20;62192.56;;;-3.30;60.80
74372;BME280;62885;51.374;6.170;2024-01-10T10:16:45;62198.47;;;-3.24;60.60
74372;BME280;62885;51.374;6.170;2024-01-10T10:19:10;62211.25;;;-3.15;60.02
74372;BME280;62885;51.374;6.170;2024-01-10T10:21:38;62206.34;;;-3.22;60.07
74372;BME280;62885;51.374;6.170;2024-01-10T10:24:04;62209.66;;;-3.16;60.28
74372;BME280;62885;51.374;6.170;2024-01-10T10:26:32;62215.53;;;-3.11;60.67
74372;BME280;62885;51.374;6.170;2024-01-10T10:28:58;62201.94;;;-2.99;60.43
74372;BME280;62885;51.374;6.170;2024-01-10T10:31:24;62226.91;;;-2.98;59.71
74372;BME280;62885;51.374;6.170;2024-01-10T10:33:49;62225.28;;;-2.99;59.89
74372;BME280;62885;51.374;6.170;2024-01-10T10:36:16;62227.44;;;-2.97;60.02
74372;BME280;62885;51.374;6.170;2024-01-10T10:38:41;62237.00;;;-2.91;59.99
74372;BME280;62885;51.374;6.170;2024-01-10T10:41:07;62244.06;;;-2.81;59.03
74372;BME280;62885;51.374;6.170;2024-01-10T10:43:37;62262.16;;;-2.69;59.23
74372;BME280;62885;51.374;6.170;2024-01-10T10:46:07;62256.94;;;-2.69;59.07
74372;BME280;62885;51.374;6.170;2024-01-10T10:48:33;62260.63;;;-2.68;59.53
74372;BME280;62885;51.374;6.170;2024-01-10T10:51:07;62272.44;;;-2.57;58.52
74372;BME280;62885;51.374;6.170;2024-01-10T10:53:35;62277.25;;;-2.53;58.80
74372;BME280;62885;51.374;6.170;2024-01-10T10:56:05;62287.91;;;-2.45;58.75
74372;BME280;62885;51.374;6.170;2024-01-10T10:58:42;62279.50;;;-2.48;58.25
74372;BME280;62885;51.374;6.170;2024-01-10T11:01:12;62286.38;;;-2.44;58.35
74372;BME280;62885;51.374;6.170;2024-01-10T11:03:39;62288.53;;;-2.42;57.77
74372;BME280;62885;51.374;6.170;2024-01-10T11:06:06;62297.66;;;-2.33;58.38
74372;BME280;62885;51.374;6.170;2024-01-10T11:08:36;62292.28;;;-2.38;57.47
74372;BME280;62885;51.374;6.170;2024-01-10T11:11:05;62302.41;;;-2.31;58.30
74372;BME280;62885;51.374;6.170;2024-01-10T11:13:45;62304.72;;;-2.24;57.89
74372;BME280;62885;51.374;6.170;2024-01-10T11:16:46;62281.88;;;-2.24;57.37
74372;BME280;62885;51.374;6.170;2024-01-10T11:19:56;62319.56;;;-2.15;57.11
74372;BME280;62885;51.374;6.170;2024-01-10T11:24:52;62308.81;;;-1.96;57.71
74372;BME280;62885;51.374;6.170;2024-01-10T11:27:18;62340.63;;;-1.93;56.88
74372;BME280;62885;51.374;6.170;2024-01-10T11:29:46;62348.66;;;-1.85;57.26
74372;BME280;62885;51.374;6.170;2024-01-10T11:32:15;62359.94;;;-1.75;56.79
74372;BME280;62885;51.374;6.170;2024-01-10T11:34:57;62356.63;;;-1.80;55.33
74372;BME280;62885;51.374;6.170;2024-01-10T11:37:28;62359.50;;;-1.73;55.62
74372;BME280;62885;51.374;6.170;2024-01-10T11:39:54;62363.09;;;-1.74;55.73
74372;BME280;62885;51.374;6.170;2024-01-10T11:42:23;62369.09;;;-1.66;55.56
74372;BME280;62885;51.374;6.170;2024-01-10T11:44:50;62368.00;;;-1.67;55.28
74372;BME280;62885;51.374;6.170;2024-01-10T11:47:17;62375.63;;;-1.57;55.22
74372;BME280;62885;51.374;6.170;2024-01-10T11:49:54;62393.28;;;-1.43;55.04
74372;BME280;62885;51.374;6.170;2024-01-10T11:52:22;62367.38;;;-1.41;54.28
74372;BME280;62885;51.374;6.170;2024-01-10T11:54:48;62390.06;;;-1.46;53.71
74372;BME280;62885;51.374;6.170;2024-01-10T11:59:43;62405.63;;;-1.32;54.16
74372;BME280;62885;51.374;6.170;2024-01-10T12:02:13;62409.94;;;-1.28;54.14
74372;BME280;62885;51.374;6.170;2024-01-10T12:04:39;62415.84;;;-1.22;53.92
74372;BME280;62885;51.374;6.170;2024-01-10T12:07:06;62412.09;;;-1.26;53.35
74372;BME280;62885;51.374;6.170;2024-01-10T12:09:33;62426.50;;;-1.14;53.30
74372;BME280;62885;51.374;6.170;2024-01-10T12:11:59;62437.34;;;-1.02;53.38
74372;BME280;62885;51.374;6.170;2024-01-10T12:14:24;62455.03;;;-0.88;53.41
74372;BME280;62885;51.374;6.170;2024-01-10T12:16:53;62456.19;;;-0.84;52.29
74372;BME280;62885;51.374;6.170;2024-01-10T12:19:18;62454.47;;;-0.88;52.03
74372;BME280;62885;51.374;6.170;2024-01-10T12:21:44;62429.69;;;-0.82;52.55
74372;BME280;62885;51.374;6.170;2024-01-10T12:24:09;62469.69;;;-0.69;52.34
74372;BME280;62885;51.374;6.170;2024-01-10T12:26:35;62468.00;;;-0.73;51.66
74372;BME280;62885;51.374;6.170;2024-01-10T12:29:01;62472.84;;;-0.68;51.81
74372;BME280;62885;51.374;6.170;2024-01-10T12:31:29;62484.75;;;-0.55;51.23
74372;BME280;62885;51.374;6.170;2024-01-10T12:33:56;62459.25;;;-0.54;50.37
74372;BME280;62885;51.374;6.170;2024-01-10T12:36:21;62495.88;;;-0.49;50.51
74372;BME280;62885;51.374;6.170;2024-01-10T12:38:47;62496.59;;;-0.44;50.56
74372;BME280;62885;51.374;6.170;2024-01-10T12:41:15;62460.97;;;-0.50;49.96
74372;BME280;62885;51.374;6.170;2024-01-10T12:43:41;62496.06;;;-0.44;50.07
74372;BME280;62885;51.374;6.170;2024-01-10T12:46:10;62498.66;;;-0.44;49.69
74372;BME280;62885;51.374;6.170;2024-01-10T12:48:37;62506.75;;;-0.36;50.14
74372;BME280;62885;51.374;6.170;2024-01-10T12:51:13;62493.38;;;-0.47;50.01
74372;BME280;62885;51.374;6.170;2024-01-10T12:53:40;62492.75;;;-0.50;50.40
74372;BME280;62885;51.374;6.170;2024-01-10T12:56:07;62500.28;;;-0.43;50.29
74372;BME280;62885;51.374;6.170;2024-01-10T12:58:34;62499.28;;;-0.41;50.76
74372;BME280;62885;51.374;6.170;2024-01-10T13:01:04;62466.78;;;-0.47;50.59